sensor_id;sensor_type;location;lat;lon;timestamp;pressure;altitude;pressure_sealevel;temperature;humidity
66857;BME280;53766;50.280;19.160;2023-03-26T00:01:38;97471.41;;;18.23;43.50
66857;BME280;53766;50.280;19.160;2023-03-26T00:04:06;97476.75;;;18.23;43.72
66857;BME280;53766;50.280;19.160;2023-03-26T00:06:36;97476.75;;;18.23;43.65
66857;BME280;53766;50.280;19.160;2023-03-26T00:09:08;97473.03;;;18.24;43.55
66857;BME280;53766;50.280;19.160;2023-03-26T00:11:36;97476.75;;;18.23;43.59
66857;BME280;53766;50.280;19.160;2023-03-26T00:14:04;97477.56;;;18.23;43.72
66857;BME280;53766;50.280;19.160;2023-03-26T00:16:32;97482.06;;;18.23;43.80
66857;BME280;53766;50.280;19.160;2023-03-26T00:19:02;97476.75;;;18.23;43.72
66857;BME280;53766;50.280;19.160;2023-03-26T00:21:30;97488.22;;;18.23;43.88
66857;BME280;53766;50.280;19.160;2023-03-26T00:24:03;97483.69;;;18.24;43.78
66857;BME280;53766;50.280;19.160;2023-03-26T00:26:33;97480.44;;;18.22;43.69
66857;BME280;53766;50.280;19.160;2023-03-26T00:29:01;97479.41;;;18.23;43.83
66857;BME280;53766;50.280;19.160;2023-03-26T00:31:30;97485.75;;;18.22;43.79
66857;BME280;53766;50.280;19.160;2023-03-26T00:33:58;97491.09;;;18.22;43.82
66857;BME280;53766;50.280;19.160;2023-03-26T00:36:29;97473.03;;;18.24;43.88
66857;BME280;53766;50.280;19.160;2023-03-26T00:38:57;97448.47;;;18.22;43.89
66857;BME280;53766;50.280;19.160;2023-03-26T00:41:24;97450.09;;;18.23;43.88
66857;BME280;53766;50.280;19.160;2023-03-26T00:43:57;97454.59;;;18.22;43.91
66857;BME280;53766;50.280;19.160;2023-03-26T00:46:26;97459.13;;;18.22;43.95
66857;BME280;53766;50.280;19.160;2023-03-26T00:48:54;97469.78;;;18.22;43.88
66857;BME280;53766;50.280;19.160;2023-03-26T00:51:26;97465.25;;;18.22;44.10
66857;BME280;53766;50.280;19.160;2023-03-26T00:53:55;97469.78;;;18.22;44.06
66857;BME280;53766;50.280;19.160;2023-03-26T00:56:23;97459.13;;;18.22;44.02
66857;BME280;53766;50.280;19.160;2023-03-26T00:58:51;97458.31;;;18.21;44.06
66857;BME280;53766;50.280;19.160;2023-03-26T01:01:23;97453.78;;;18.22;44.03
66857;BME280;53766;50.280;19.160;2023-03-26T01:03:57;97445.78;;;18.22;44.17
66857;BME280;53766;50.280;19.160;2023-03-26T01:06:44;97448.47;;;18.22;44.09
66857;BME280;53766;50.280;19.160;2023-03-26T01:09:14;97441.50;;;18.21;44.17
66857;BME280;53766;50.280;19.160;2023-03-26T01:11:43;97444.19;;;18.21;44.18
66857;BME280;53766;50.280;19.160;2023-03-26T01:14:20;97441.50;;;18.21;44.09
66857;BME280;53766;50.280;19.160;2023-03-26T01:16:57;97425.53;;;18.21;44.21
66857;BME280;53766;50.280;19.160;2023-03-26T01:19:54;97441.50;;;18.21;44.22
66857;BME280;53766;50.280;19.160;2023-03-26T01:22:25;97446.84;;;18.21;44.23
66857;BME280;53766;50.280;19.160;2023-03-26T01:24:53;97441.50;;;18.21;44.21
66857;BME280;53766;50.280;19.160;2023-03-26T01:40:34;97428.41;;;18.19;44.21
66857;BME280;53766;50.280;19.160;2023-03-26T01:43:23;97432.69;;;18.20;44.33
66857;BME280;53766;50.280;19.160;2023-03-26T01:45:52;97430.84;;;18.21;44.28
66857;BME280;53766;50.280;19.160;2023-03-26T01:48:28;97427.59;;;18.19;44.42
66857;BME280;53766;50.280;19.160;2023-03-26T01:50:57;97437.22;;;18.20;44.38
66857;BME280;53766;50.280;19.160;2023-03-26T01:53:25;97430.00;;;18.20;44.34
66857;BME280;53766;50.280;19.160;2023-03-26T02:02:09;97417.75;;;18.19;44.41
66857;BME280;53766;50.280;19.160;2023-03-26T02:09:44;97422.28;;;18.19;44.33
66857;BME280;53766;50.280;19.160;2023-03-26T02:12:14;97421.47;;;18.18;44.44
66857;BME280;53766;50.280;19.160;2023-03-26T02:14:43;97416.94;;;18.19;44.42
66857;BME280;53766;50.280;19.160;2023-03-26T02:17:12;97419.81;;;18.17;44.49
66857;BME280;53766;50.280;19.160;2023-03-26T02:19:39;97420.63;;;18.18;44.43
66857;BME280;53766;50.280;19.160;2023-03-26T02:22:09;97424.94;;;18.19;44.43
66857;BME280;53766;50.280;19.160;2023-03-26T02:24:43;97423.28;;;18.18;44.49
66857;BME280;53766;50.280;19.160;2023-03-26T02:27:11;97421.69;;;18.17;44.49
66857;BME280;53766;50.280;19.160;2023-03-26T02:29:40;97423.28;;;18.18;44.64
66857;BME280;53766;50.280;19.160;2023-03-26T02:32:10;97425.16;;;18.17;44.52
66857;BME280;53766;50.280;19.160;2023-03-26T02:34:41;97427.81;;;18.17;44.58
66857;BME280;53766;50.280;19.160;2023-03-26T02:37:09;97425.97;;;18.18;44.52
66857;BME280;53766;50.280;19.160;2023-03-26T02:39:36;97433.94;;;18.18;44.49
66857;BME280;53766;50.280;19.160;2023-03-26T02:42:04;97436.63;;;18.18;44.53
66857;BME280;53766;50.280;19.160;2023-03-26T02:44:31;97435.81;;;18.17;44.52
66857;BME280;53766;50.280;19.160;2023-03-26T02:46:59;97435.00;;;18.17;44.74
66857;BME280;53766;50.280;19.160;2023-03-26T02:49:27;97426.44;;;18.15;44.62
66857;BME280;53766;50.280;19.160;2023-03-26T02:51:54;97440.34;;;18.17;44.52
66857;BME280;53766;50.280;19.160;2023-03-26T02:54:22;97425.97;;;18.18;44.67
66857;BME280;53766;50.280;19.160;2023-03-26T02:56:50;97406.72;;;18.16;44.61
66857;BME280;53766;50.280;19.160;2023-03-26T02:59:17;97412.03;;;18.16;44.61
66857;BME280;53766;50.280;19.160;2023-03-26T03:01:45;97415.56;;;18.16;44.62
66857;BME280;53766;50.280;19.160;2023-03-26T03:04:13;97407.56;;;18.16;44.76
66857;BME280;53766;50.280;19.160;2023-03-26T03:06:41;97396.91;;;18.16;44.70
66857;BME280;53766;50.280;19.160;2023-03-26T03:09:11;97396.91;;;18.16;44.70
66857;BME280;53766;50.280;19.160;2023-03-26T03:11:39;97389.13;;;18.15;44.64
66857;BME280;53766;50.280;19.160;2023-03-26T03:14:07;97390.72;;;18.16;44.73
66857;BME280;53766;50.280;19.160;2023-03-26T03:16:35;97390.72;;;18.16;44.68
66857;BME280;53766;50.280;19.160;2023-03-26T03:19:02;97406.72;;;18.16;44.80
66857;BME280;53766;50.280;19.160;2023-03-26T03:21:32;97405.09;;;18.15;44.73
66857;BME280;53766;50.280;19.160;2023-03-26T03:24:01;97405.09;;;18.15;44.86
66857;BME280;53766;50.280;19.160;2023-03-26T03:26:28;97401.38;;;18.16;44.74
66857;BME280;53766;50.280;19.160;2023-03-26T03:28:56;97394.44;;;18.15;44.80
66857;BME280;53766;50.280;19.160;2023-03-26T03:31:25;97391.78;;;18.15;44.91
66857;BME280;53766;50.280;19.160;2023-03-26T03:33:53;97389.94;;;18.15;44.74
66857;BME280;53766;50.280;19.160;2023-03-26T03:36:21;97397.13;;;18.15;44.85
66857;BME280;53766;50.280;19.160;2023-03-26T03:38:49;97390.97;;;18.14;44.90
66857;BME280;53766;50.280;19.160;2023-03-26T03:41:17;97392.59;;;18.15;44.79
66857;BME280;53766;50.280;19.160;2023-03-26T03:43:45;97392.81;;;18.14;44.79
66857;BME280;53766;50.280;19.160;2023-03-26T03:46:12;97395.47;;;18.14;44.87
66857;BME280;53766;50.280;19.160;2023-03-26T03:48:40;97392.81;;;18.14;44.89
66857;BME280;53766;50.280;19.160;2023-03-26T03:51:07;97398.13;;;18.14;44.95
66857;BME280;53766;50.280;19.160;2023-03-26T03:53:35;97392.00;;;18.13;45.00
66857;BME280;53766;50.280;19.160;2023-03-26T03:56:04;97391.19;;;18.13;44.85
66857;BME280;53766;50.280;19.160;2023-03-26T03:58:36;97392.81;;;18.14;44.93
66857;BME280;53766;50.280;19.160;2023-03-26T04:01:03;97398.13;;;18.14;44.94
66857;BME280;53766;50.280;19.160;2023-03-26T04:03:31;97401.84;;;18.13;44.88
66857;BME280;53766;50.280;19.160;2023-03-26T04:06:05;97402.66;;;18.13;44.84
66857;BME280;53766;50.280;19.160;2023-03-26T04:08:37;97405.31;;;18.13;44.86
66857;BME280;53766;50.280;19.160;2023-03-26T04:11:04;97407.19;;;18.13;44.92
66857;BME280;53766;50.280;19.160;2023-03-26T04:13:32;97413.31;;;18.13;44.86
66857;BME280;53766;50.280;19.160;2023-03-26T04:16:00;97401.06;;;18.12;44.89
66857;BME280;53766;50.280;19.160;2023-03-26T04:18:27;97406.38;;;18.12;44.90
66857;BME280;53766;50.280;19.160;2023-03-26T04:20:57;97401.84;;;18.13;45.07
66857;BME280;53766;50.280;19.160;2023-03-26T04:23:28;97406.38;;;18.12;45.01
66857;BME280;53766;50.280;19.160;2023-03-26T04:25:57;97409.84;;;18.13;45.01
66857;BME280;53766;50.280;19.160;2023-03-26T04:28:33;97408.22;;;18.12;44.90
66857;BME280;53766;50.280;19.160;2023-03-26T04:31:02;97401.84;;;18.13;44.90
66857;BME280;53766;50.280;19.160;2023-03-26T04:33:31;97400.22;;;18.12;44.91
66857;BME280;53766;50.280;19.160;2023-03-26T04:35:59;97398.59;;;18.11;45.03
66857;BME280;53766;50.280;19.160;2023-03-26T04:38:42;97399.41;;;18.11;45.01
66857;BME280;53766;50.280;19.160;2023-03-26T04:41:11;97406.59;;;18.11;45.03
66857;BME280;53766;50.280;19.160;2023-03-26T04:43:39;97398.59;;;18.11;45.17
66857;BME280;53766;50.280;19.160;2023-03-26T04:46:13;97403.94;;;18.11;45.02
66857;BME280;53766;50.280;19.160;2023-03-26T04:48:44;97405.53;;;18.12;44.93
66857;BME280;53766;50.280;19.160;2023-03-26T04:51:13;97400.22;;;18.12;45.10
66857;BME280;53766;50.280;19.160;2023-03-26T04:53:50;97404.75;;;18.11;45.09
66857;BME280;53766;50.280;19.160;2023-03-26T04:59:16;97406.81;;;18.09;45.07
66857;BME280;53766;50.280;19.160;2023-03-26T05:01:44;97404.41;;;18.07;45.13
66857;BME280;53766;50.280;19.160;2023-03-26T05:04:12;97406.47;;;18.05;45.15
66857;BME280;53766;50.280;19.160;2023-03-26T05:06:40;97402.16;;;18.04;45.00
66857;BME280;53766;50.280;19.160;2023-03-26T05:09:08;97399.50;;;18.04;45.13
66857;BME280;53766;50.280;19.160;2023-03-26T05:11:37;97401.59;;;18.02;45.05
66857;BME280;53766;50.280;19.160;2023-03-26T05:14:04;97389.31;;;18.01;45.01
66857;BME280;53766;50.280;19.160;2023-03-26T05:16:32;97393.00;;;18.00;44.94
66857;BME280;53766;50.280;19.160;2023-03-26T05:19:00;97394.06;;;17.99;44.73
66857;BME280;53766;50.280;19.160;2023-03-26T05:21:27;97395.06;;;17.98;44.86
66857;BME280;53766;50.280;19.160;2023-03-26T05:23:55;97401.47;;;17.97;44.75
66857;BME280;53766;50.280;19.160;2023-03-26T05:26:22;97391.81;;;17.96;44.84
66857;BME280;53766;50.280;19.160;2023-03-26T05:28:50;97398.22;;;17.95;44.59
66857;BME280;53766;50.280;19.160;2023-03-26T05:31:19;97403.53;;;17.95;44.67
66857;BME280;53766;50.280;19.160;2023-03-26T05:33:49;97404.56;;;17.94;44.63
66857;BME280;53766;50.280;19.160;2023-03-26T05:36:17;97405.59;;;17.93;44.60
66857;BME280;53766;50.280;19.160;2023-03-26T05:38:45;97404.00;;;17.92;44.64
66857;BME280;53766;50.280;19.160;2023-03-26T05:41:16;97405.03;;;17.91;44.46
66857;BME280;53766;50.280;19.160;2023-03-26T05:43:43;97397.25;;;17.89;44.56
66857;BME280;53766;50.280;19.160;2023-03-26T05:46:12;97407.91;;;17.89;44.39
66857;BME280;53766;50.280;19.160;2023-03-26T05:48:40;97410.81;;;17.88;44.36
66857;BME280;53766;50.280;19.160;2023-03-26T05:51:08;97408.38;;;17.86;44.48
66857;BME280;53766;50.280;19.160;2023-03-26T05:53:35;97408.56;;;17.85;44.23
66857;BME280;53766;50.280;19.160;2023-03-26T05:56:03;97410.22;;;17.86;44.15
66857;BME280;53766;50.280;19.160;2023-03-26T05:58:34;97408.38;;;17.86;43.58
66857;BME280;53766;50.280;19.160;2023-03-26T06:01:05;97405.47;;;17.88;43.77
66857;BME280;53766;50.280;19.160;2023-03-26T06:03:37;97416.47;;;17.92;44.27
66857;BME280;53766;50.280;19.160;2023-03-26T06:06:07;97417.44;;;17.97;47.49
66857;BME280;53766;50.280;19.160;2023-03-26T06:08:34;97413.88;;;18.03;48.81
66857;BME280;53766;50.280;19.160;2023-03-26T06:11:04;97421.19;;;18.08;48.94
66857;BME280;53766;50.280;19.160;2023-03-26T06:13:34;97417.84;;;18.13;49.90
66857;BME280;53766;50.280;19.160;2023-03-26T06:16:01;97428.50;;;18.13;47.95
66857;BME280;53766;50.280;19.160;2023-03-26T06:18:29;97431.16;;;18.13;48.45
66857;BME280;53766;50.280;19.160;2023-03-26T06:20:57;97423.38;;;18.11;47.72
66857;BME280;53766;50.280;19.160;2023-03-26T06:23:24;97423.63;;;18.09;47.49
66857;BME280;53766;50.280;19.160;2023-03-26T06:25:52;97415.06;;;18.07;47.18
66857;BME280;53766;50.280;19.160;2023-03-26T06:28:19;97419.56;;;18.07;46.83
66857;BME280;53766;50.280;19.160;2023-03-26T06:30:48;97421.41;;;18.06;46.75
66857;BME280;53766;50.280;19.160;2023-03-26T06:33:16;97422.47;;;18.05;46.33
66857;BME280;53766;50.280;19.160;2023-03-26T06:35:44;97426.16;;;18.04;46.13
66857;BME280;53766;50.280;19.160;2023-03-26T06:38:12;97431.47;;;18.04;45.67
66857;BME280;53766;50.280;19.160;2023-03-26T06:40:39;97424.53;;;18.03;45.46
66857;BME280;53766;50.280;19.160;2023-03-26T06:43:07;97428.22;;;18.02;45.42
66857;BME280;53766;50.280;19.160;2023-03-26T06:45:37;97423.94;;;18.01;45.17
66857;BME280;53766;50.280;19.160;2023-03-26T06:48:05;97416.97;;;18.00;44.98
66857;BME280;53766;50.280;19.160;2023-03-26T06:50:33;97420.47;;;18.01;44.83
66857;BME280;53766;50.280;19.160;2023-03-26T06:53:00;97416.38;;;17.98;44.74
66857;BME280;53766;50.280;19.160;2023-03-26T06:55:28;97417.22;;;17.99;44.59
66857;BME280;53766;50.280;19.160;2023-03-26T06:57:56;97420.09;;;17.97;44.54
66857;BME280;53766;50.280;19.160;2023-03-26T07:00:24;97413.97;;;17.97;44.58
66857;BME280;53766;50.280;19.160;2023-03-26T07:02:52;97416.84;;;17.95;44.60
66857;BME280;53766;50.280;19.160;2023-03-26T07:05:20;97416.06;;;17.95;44.30
66857;BME280;53766;50.280;19.160;2023-03-26T07:07:49;97417.88;;;17.94;44.23
66857;BME280;53766;50.280;19.160;2023-03-26T07:10:17;97416.84;;;17.95;44.10
66857;BME280;53766;50.280;19.160;2023-03-26T07:12:44;97416.84;;;17.95;43.83
66857;BME280;53766;50.280;19.160;2023-03-26T07:15:12;97416.84;;;17.95;43.71
66857;BME280;53766;50.280;19.160;2023-03-26T07:17:39;97414.78;;;17.97;43.75
66857;BME280;53766;50.280;19.160;2023-03-26T07:20:08;97417.44;;;17.97;43.75
66857;BME280;53766;50.280;19.160;2023-03-26T07:22:36;97416.38;;;17.98;43.65
66857;BME280;53766;50.280;19.160;2023-03-26T07:25:04;97418.03;;;17.99;43.60
66857;BME280;53766;50.280;19.160;2023-03-26T07:30:31;97418.03;;;17.99;43.86
66857;BME280;53766;50.280;19.160;2023-03-26T07:46:31;97416.53;;;18.03;43.75
66857;BME280;53766;50.280;19.160;2023-03-26T07:49:01;97413.88;;;18.03;43.88
66857;BME280;53766;50.280;19.160;2023-03-26T07:51:31;97424.53;;;18.03;43.97
66857;BME280;53766;50.280;19.160;2023-03-26T07:53:58;97423.47;;;18.04;43.89
66857;BME280;53766;50.280;19.160;2023-03-26T07:59:29;97424.88;;;18.07;43.87
66857;BME280;53766;50.280;19.160;2023-03-26T08:10:52;97422.59;;;18.11;43.89
66857;BME280;53766;50.280;19.160;2023-03-26T08:13:48;97419.91;;;18.11;43.95
66857;BME280;53766;50.280;19.160;2023-03-26T08:16:29;97423.16;;;18.13;44.00
66857;BME280;53766;50.280;19.160;2023-03-26T08:19:22;97424.56;;;18.15;43.85
66857;BME280;53766;50.280;19.160;2023-03-26T08:22:15;97426.22;;;18.16;43.90
66857;BME280;53766;50.280;19.160;2023-03-26T08:30:21;97404.63;;;18.18;43.85
66857;BME280;53766;50.280;19.160;2023-03-26T08:32:58;97406.28;;;18.19;43.89
66857;BME280;53766;50.280;19.160;2023-03-26T08:35:26;97395.63;;;18.19;43.99
66857;BME280;53766;50.280;19.160;2023-03-26T08:37:56;97407.91;;;18.20;43.85
66857;BME280;53766;50.280;19.160;2023-03-26T08:52:04;97406.41;;;18.24;43.70
66857;BME280;53766;50.280;19.160;2023-03-26T09:20:42;97384.75;;;18.32;44.04
66857;BME280;53766;50.280;19.160;2023-03-26T09:23:42;97379.44;;;18.32;44.00
66857;BME280;53766;50.280;19.160;2023-03-26T09:26:44;97388.22;;;18.33;43.78
66857;BME280;53766;50.280;19.160;2023-03-26T09:37:24;97388.44;;;18.31;44.04
66857;BME280;53766;50.280;19.160;2023-03-26T09:40:17;97383.13;;;18.31;44.17
66857;BME280;53766;50.280;19.160;2023-03-26T09:51:12;97381.03;;;18.33;43.98
66857;BME280;53766;50.280;19.160;2023-03-26T09:54:00;97371.22;;;18.34;43.88
66857;BME280;53766;50.280;19.160;2023-03-26T09:56:50;97365.03;;;18.33;43.80
66857;BME280;53766;50.280;19.160;2023-03-26T10:08:23;97366.09;;;18.32;43.91
66857;BME280;53766;50.280;19.160;2023-03-26T10:14:07;97365.50;;;18.30;43.90
66857;BME280;53766;50.280;19.160;2023-03-26T10:19:42;97388.91;;;18.28;44.01
66857;BME280;53766;50.280;19.160;2023-03-26T10:28:24;97376.19;;;18.30;43.77
66857;BME280;53766;50.280;19.160;2023-03-26T10:36:36;97357.75;;;18.28;43.96
66857;BME280;53766;50.280;19.160;2023-03-26T10:48:00;97350.69;;;18.34;43.66
66857;BME280;53766;50.280;19.160;2023-03-26T10:53:10;97350.69;;;18.34;43.55
66857;BME280;53766;50.280;19.160;2023-03-26T10:55:41;97349.88;;;18.34;43.67
66857;BME280;53766;50.280;19.160;2023-03-26T10:58:25;97353.34;;;18.34;43.68
66857;BME280;53766;50.280;19.160;2023-03-26T11:01:10;97345.34;;;18.34;43.55
66857;BME280;53766;50.280;19.160;2023-03-26T11:03:51;97348.84;;;18.35;43.64
66857;BME280;53766;50.280;19.160;2023-03-26T11:06:37;97343.28;;;18.36;43.63
66857;BME280;53766;50.280;19.160;2023-03-26T11:20:08;97324.50;;;18.43;44.55
66857;BME280;53766;50.280;19.160;2023-03-26T11:33:24;97303.16;;;18.55;45.69
66857;BME280;53766;50.280;19.160;2023-03-26T11:36:04;97297.84;;;18.55;45.92
66857;BME280;53766;50.280;19.160;2023-03-26T11:38:37;97303.53;;;18.58;46.46
66857;BME280;53766;50.280;19.160;2023-03-26T11:41:15;97297.72;;;18.61;46.60
66857;BME280;53766;50.280;19.160;2023-03-26T11:43:54;97297.72;;;18.61;46.76
66857;BME280;53766;50.280;19.160;2023-03-26T11:46:24;97298.53;;;18.62;46.72
66857;BME280;53766;50.280;19.160;2023-03-26T11:49:02;97300.38;;;18.61;47.07
66857;BME280;53766;50.280;19.160;2023-03-26T11:51:37;97291.56;;;18.61;47.10
66857;BME280;53766;50.280;19.160;2023-03-26T11:54:06;97289.00;;;18.66;46.83
66857;BME280;53766;50.280;19.160;2023-03-26T11:56:52;97289.25;;;18.64;46.84
66857;BME280;53766;50.280;19.160;2023-03-26T12:00:13;97283.34;;;18.62;46.97
66857;BME280;53766;50.280;19.160;2023-03-26T12:02:47;97278.81;;;18.63;47.03
66857;BME280;53766;50.280;19.160;2023-03-26T12:10:40;97282.78;;;18.60;46.97
66857;BME280;53766;50.280;19.160;2023-03-26T12:15:48;97269.44;;;18.60;47.00
66857;BME280;53766;50.280;19.160;2023-03-26T12:18:25;97271.03;;;18.61;46.85
66857;BME280;53766;50.280;19.160;2023-03-26T12:21:14;97267.09;;;18.64;47.02
66857;BME280;53766;50.280;19.160;2023-03-26T12:23:43;97257.84;;;18.66;46.93
66857;BME280;53766;50.280;19.160;2023-03-26T12:26:19;97257.59;;;18.68;46.81
66857;BME280;53766;50.280;19.160;2023-03-26T12:28:49;97246.69;;;18.69;46.73
66857;BME280;53766;50.280;19.160;2023-03-26T12:31:18;97234.75;;;18.72;46.74
66857;BME280;53766;50.280;19.160;2023-03-26T12:34:04;97234.28;;;18.75;46.81
66857;BME280;53766;50.280;19.160;2023-03-26T12:36:33;97226.03;;;18.77;47.06
66857;BME280;53766;50.280;19.160;2023-03-26T12:39:24;97230.13;;;18.79;47.16
66857;BME280;53766;50.280;19.160;2023-03-26T12:42:28;97219.91;;;18.76;47.02
66857;BME280;53766;50.280;19.160;2023-03-26T12:45:19;97220.13;;;18.75;46.99
66857;BME280;53766;50.280;19.160;2023-03-26T12:47:48;97212.59;;;18.71;47.21
66857;BME280;53766;50.280;19.160;2023-03-26T12:53:15;97213.41;;;18.72;47.27
66857;BME280;53766;50.280;19.160;2023-03-26T12:56:07;97208.06;;;18.72;47.28
66857;BME280;53766;50.280;19.160;2023-03-26T13:04:11;97197.66;;;18.82;47.30
66857;BME280;53766;50.280;19.160;2023-03-26T13:06:49;97187.78;;;18.83;47.21
66857;BME280;53766;50.280;19.160;2023-03-26T13:12:34;97193.91;;;18.83;47.33
66857;BME280;53766;50.280;19.160;2023-03-26T13:15:14;97195.06;;;18.87;47.16
66857;BME280;53766;50.280;19.160;2023-03-26T13:26:34;97184.88;;;18.84;47.02
66857;BME280;53766;50.280;19.160;2023-03-26T13:29:13;97185.69;;;18.85;47.10
66857;BME280;53766;50.280;19.160;2023-03-26T13:37:55;97175.38;;;18.88;47.02
66857;BME280;53766;50.280;19.160;2023-03-26T13:40:34;97169.53;;;18.91;46.78
66857;BME280;53766;50.280;19.160;2023-03-26T13:48:28;97169.53;;;18.91;46.62
66857;BME280;53766;50.280;19.160;2023-03-26T13:51:03;97173.59;;;18.94;46.76
66857;BME280;53766;50.280;19.160;2023-03-26T13:53:40;97165.34;;;18.96;46.77
66857;BME280;53766;50.280;19.160;2023-03-26T13:56:13;97165.84;;;18.93;46.90
66857;BME280;53766;50.280;19.160;2023-03-26T13:58:53;97158.88;;;18.91;46.81
66857;BME280;53766;50.280;19.160;2023-03-26T14:01:33;97174.88;;;18.91;46.87
66857;BME280;53766;50.280;19.160;2023-03-26T14:07:12;97163.88;;;18.88;47.01
66857;BME280;53766;50.280;19.160;2023-03-26T14:09:46;97161.44;;;18.86;46.95
66857;BME280;53766;50.280;19.160;2023-03-26T14:14:50;97160.88;;;18.84;46.96
66857;BME280;53766;50.280;19.160;2023-03-26T14:22:56;97151.72;;;18.80;46.87
66857;BME280;53766;50.280;19.160;2023-03-26T14:40:12;97139.31;;;18.74;46.93
66857;BME280;53766;50.280;19.160;2023-03-26T14:43:22;97131.31;;;18.74;47.04
66857;BME280;53766;50.280;19.160;2023-03-26T14:46:05;97133.41;;;18.72;46.96
66857;BME280;53766;50.280;19.160;2023-03-26T14:54:16;97135.50;;;18.70;46.96
66857;BME280;53766;50.280;19.160;2023-03-26T14:57:02;97140.03;;;18.69;47.14
66857;BME280;53766;50.280;19.160;2023-03-26T15:03:01;97135.97;;;18.67;47.02
66857;BME280;53766;50.280;19.160;2023-03-26T15:14:48;97115.94;;;18.64;47.07
66857;BME280;53766;50.280;19.160;2023-03-26T15:17:34;97105.50;;;18.63;47.14
66857;BME280;53766;50.280;19.160;2023-03-26T15:20:31;97108.16;;;18.63;46.93
66857;BME280;53766;50.280;19.160;2023-03-26T15:43:20;97096.34;;;18.59;47.06
66857;BME280;53766;50.280;19.160;2023-03-26T15:45:51;97095.31;;;18.60;47.14
66857;BME280;53766;50.280;19.160;2023-03-26T15:51:13;97100.38;;;18.61;47.16
66857;BME280;53766;50.280;19.160;2023-03-26T15:53:59;97094.25;;;18.61;47.10
66857;BME280;53766;50.280;19.160;2023-03-26T15:56:43;97091.81;;;18.59;47.02
66857;BME280;53766;50.280;19.160;2023-03-26T15:59:39;97085.69;;;18.59;47.16
66857;BME280;53766;50.280;19.160;2023-03-26T16:18:40;97082.44;;;18.57;47.09
66857;BME280;53766;50.280;19.160;2023-03-26T16:29:20;97073.88;;;18.55;47.17
66857;BME280;53766;50.280;19.160;2023-03-26T16:32:14;97084.53;;;18.55;47.18
66857;BME280;53766;50.280;19.160;2023-03-26T16:34:59;97075.97;;;18.53;47.29
66857;BME280;53766;50.280;19.160;2023-03-26T16:42:49;97064.50;;;18.52;47.09
66857;BME280;53766;50.280;19.160;2023-03-26T16:48:14;97072.72;;;18.50;47.19
66857;BME280;53766;50.280;19.160;2023-03-26T16:51:02;97066.34;;;18.52;47.18
66857;BME280;53766;50.280;19.160;2023-03-26T16:53:53;97073.56;;;18.51;47.15
66857;BME280;53766;50.280;19.160;2023-03-26T16:56:26;97069.03;;;18.52;47.14
66857;BME280;53766;50.280;19.160;2023-03-26T17:01:39;97064.97;;;18.49;47.26
66857;BME280;53766;50.280;19.160;2023-03-26T17:04:13;97066.81;;;18.48;47.14
66857;BME280;53766;50.280;19.160;2023-03-26T17:15:24;97073.22;;;18.47;47.11
66857;BME280;53766;50.280;19.160;2023-03-26T17:26:24;97073.69;;;18.44;47.22
66857;BME280;53766;50.280;19.160;2023-03-26T17:37:25;97071.03;;;18.44;47.21
66857;BME280;53766;50.280;19.160;2023-03-26T17:42:32;97073.69;;;18.44;47.13
66857;BME280;53766;50.280;19.160;2023-03-26T17:45:16;97078.44;;;18.42;47.31
66857;BME280;53766;50.280;19.160;2023-03-26T17:47:50;97074.72;;;18.43;47.31
66857;BME280;53766;50.280;19.160;2023-03-26T17:53:15;97070.44;;;18.42;47.21
66857;BME280;53766;50.280;19.160;2023-03-26T17:55:44;97072.06;;;18.43;47.38
66857;BME280;53766;50.280;19.160;2023-03-26T17:58:36;97072.06;;;18.43;47.38
66857;BME280;53766;50.280;19.160;2023-03-26T18:03:46;97067.78;;;18.42;47.31
66857;BME280;53766;50.280;19.160;2023-03-26T18:06:37;97075.78;;;18.42;47.30
66857;BME280;53766;50.280;19.160;2023-03-26T18:17:07;97073.34;;;18.41;47.36
66857;BME280;53766;50.280;19.160;2023-03-26T18:19:54;97070.91;;;18.39;47.39
66857;BME280;53766;50.280;19.160;2023-03-26T18:22:29;97077.03;;;18.40;47.40
66857;BME280;53766;50.280;19.160;2023-03-26T18:24:59;97076.25;;;18.39;47.27
66857;BME280;53766;50.280;19.160;2023-03-26T18:27:39;97081.56;;;18.39;47.42
66857;BME280;53766;50.280;19.160;2023-03-26T18:30:21;97084.25;;;18.39;47.20
66857;BME280;53766;50.280;19.160;2023-03-26T18:32:58;97078.91;;;18.39;47.28
66857;BME280;53766;50.280;19.160;2023-03-26T18:35:45;97084.25;;;18.39;47.16
66857;BME280;53766;50.280;19.160;2023-03-26T18:38:22;97070.34;;;18.37;47.27
66857;BME280;53766;50.280;19.160;2023-03-26T18:41:07;97074.63;;;18.38;47.17
66857;BME280;53766;50.280;19.160;2023-03-26T18:43:41;97074.63;;;18.38;47.37
66857;BME280;53766;50.280;19.160;2023-03-26T18:46:12;97078.34;;;18.37;47.20
66857;BME280;53766;50.280;19.160;2023-03-26T18:48:41;97074.06;;;18.36;47.28
66857;BME280;53766;50.280;19.160;2023-03-26T18:51:09;97066.06;;;18.36;47.29
66857;BME280;53766;50.280;19.160;2023-03-26T18:53:54;97079.38;;;18.36;47.21
66857;BME280;53766;50.280;19.160;2023-03-26T18:56:26;97076.72;;;18.36;47.19
66857;BME280;53766;50.280;19.160;2023-03-26T18:58:58;97086.59;;;18.36;47.46
66857;BME280;53766;50.280;19.160;2023-03-26T19:01:28;97087.38;;;18.36;47.34
66857;BME280;53766;50.280;19.160;2023-03-26T19:04:05;97081.25;;;18.36;47.21
66857;BME280;53766;50.280;19.160;2023-03-26T19:06:38;97086.59;;;18.36;47.24
66857;BME280;53766;50.280;19.160;2023-03-26T19:09:08;97075.09;;;18.35;47.38
66857;BME280;53766;50.280;19.160;2023-03-26T19:12:07;97080.41;;;18.35;47.19
66857;BME280;53766;50.280;19.160;2023-03-26T19:14:53;97078.81;;;18.34;47.34
66857;BME280;53766;50.280;19.160;2023-03-26T19:17:23;97070.81;;;18.34;47.39
66857;BME280;53766;50.280;19.160;2023-03-26T19:19:54;97079.63;;;18.35;47.21
66857;BME280;53766;50.280;19.160;2023-03-26T19:22:24;97075.09;;;18.35;47.32